Skip Navigation Links Skip Navigation Links

Current Weather

Miami Intl, Miami

For information only: do not use for flight planning or navigation.
Latest weather
Observation time Thursday, January 27, 2022 11:53 PM EST
Local time Friday, January 28, 2022 12:43 AM EST
Flight conditions Visual Meteorological Conditions
Winds
Wind direction North-Northwest (340°)
Wind speed 6 mph
Visibility 10 mi.
Sky condition
Ceiling 3,000 ft. broken clouds
Cloud layer broken clouds 3,000 ft.
Cloud layer broken clouds 5,000 ft.
Cloud layer broken clouds 25,000 ft.
Temperature 70°F
Dewpoint 66°F
Altimeter 30.03 in.Hg
Derived measurements
Relative humidity 87%
Density altitude 893 ft.
Sea-level pressure 30.03 in.Hg
Climate data
Temperature minimum, last 24 hours 66°F
Temperature maximum, last 24 hours 82°F
Remarks
Automated weather observing station with precipitation discriminator.
METAR KMIA 280453Z 34005KT 10SM BKN030 BKN050 BKN250 21/19 A3003 RMK AO2 SLP170 T02110189 402780189

Settings

Location code

InnerDrive.Weather 4.0.6770.0 Release CLR 4.0.30319.42000
Copyright ©2018 Inner Drive Technology. All rights reserved. Portions Copyright ©1986-2018 David Braverman.

Find weather

Site navigation


Skip Navigation Links

Place info

Page info

PayPal - The safer, easier way to pay online!

Return home.

Copyright ©2022 Inner Drive Technology. Purveyors of fine, hand-crafted computer software. Page printed 2022-01-28T05:43:20 UTC.